sensor_id;sensor_type;location;lat;lon;timestamp;P1;durP1;ratioP1;P2;durP2;ratioP2
65896;SDS011;52677;50.898;10.854;2023-07-29T00:00:38;2.30;;;2.10;;
65896;SDS011;52677;50.898;10.854;2023-07-29T00:02:39;2.80;;;2.25;;
65896;SDS011;52677;50.898;10.854;2023-07-29T00:04:39;4.20;;;2.42;;
65896;SDS011;52677;50.898;10.854;2023-07-29T00:06:40;3.00;;;2.70;;
65896;SDS011;52677;50.898;10.854;2023-07-29T00:08:40;2.88;;;2.38;;
65896;SDS011;52677;50.898;10.854;2023-07-29T00:10:40;2.83;;;2.58;;
65896;SDS011;52677;50.898;10.854;2023-07-29T00:12:41;2.47;;;2.28;;
65896;SDS011;52677;50.898;10.854;2023-07-29T00:14:41;3.28;;;2.58;;
65896;SDS011;52677;50.898;10.854;2023-07-29T00:16:41;2.63;;;2.42;;
65896;SDS011;52677;50.898;10.854;2023-07-29T00:18:43;3.92;;;2.38;;
65896;SDS011;52677;50.898;10.854;2023-07-29T00:20:43;2.45;;;2.25;;
65896;SDS011;52677;50.898;10.854;2023-07-29T00:22:44;3.63;;;2.58;;
65896;SDS011;52677;50.898;10.854;2023-07-29T00:24:44;2.72;;;2.20;;
65896;SDS011;52677;50.898;10.854;2023-07-29T00:26:44;3.13;;;2.22;;
65896;SDS011;52677;50.898;10.854;2023-07-29T00:28:45;2.30;;;2.10;;
65896;SDS011;52677;50.898;10.854;2023-07-29T00:30:45;2.25;;;2.03;;
65896;SDS011;52677;50.898;10.854;2023-07-29T00:32:45;2.22;;;2.03;;
65896;SDS011;52677;50.898;10.854;2023-07-29T00:34:45;2.42;;;2.20;;
65896;SDS011;52677;50.898;10.854;2023-07-29T00:36:46;2.30;;;2.00;;
65896;SDS011;52677;50.898;10.854;2023-07-29T00:38:46;2.13;;;1.88;;
65896;SDS011;52677;50.898;10.854;2023-07-29T00:40:46;3.15;;;2.30;;
65896;SDS011;52677;50.898;10.854;2023-07-29T00:42:47;3.38;;;1.95;;
65896;SDS011;52677;50.898;10.854;2023-07-29T00:44:47;2.85;;;2.00;;
65896;SDS011;52677;50.898;10.854;2023-07-29T00:46:48;3.20;;;1.90;;
65896;SDS011;52677;50.898;10.854;2023-07-29T00:48:50;2.33;;;1.83;;
65896;SDS011;52677;50.898;10.854;2023-07-29T00:50:50;3.85;;;2.00;;
65896;SDS011;52677;50.898;10.854;2023-07-29T00:52:51;2.40;;;2.00;;
65896;SDS011;52677;50.898;10.854;2023-07-29T00:54:51;2.33;;;1.95;;
65896;SDS011;52677;50.898;10.854;2023-07-29T00:56:52;5.72;;;2.25;;
65896;SDS011;52677;50.898;10.854;2023-07-29T00:58:52;3.35;;;2.20;;
65896;SDS011;52677;50.898;10.854;2023-07-29T01:00:58;2.95;;;2.03;;
65896;SDS011;52677;50.898;10.854;2023-07-29T01:02:58;2.40;;;1.92;;
65896;SDS011;52677;50.898;10.854;2023-07-29T01:04:59;2.83;;;1.90;;
65896;SDS011;52677;50.898;10.854;2023-07-29T01:07:14;2.50;;;2.17;;
65896;SDS011;52677;50.898;10.854;2023-07-29T01:09:30;4.75;;;1.80;;
65896;SDS011;52677;50.898;10.854;2023-07-29T01:11:46;2.22;;;2.03;;
65896;SDS011;52677;50.898;10.854;2023-07-29T01:14:04;2.67;;;1.88;;
65896;SDS011;52677;50.898;10.854;2023-07-29T01:16:17;2.40;;;1.40;;
65896;SDS011;52677;50.898;10.854;2023-07-29T01:18:28;2.35;;;1.70;;
65896;SDS011;52677;50.898;10.854;2023-07-29T01:20:32;2.08;;;1.80;;
65896;SDS011;52677;50.898;10.854;2023-07-29T01:22:34;6.47;;;1.80;;
65896;SDS011;52677;50.898;10.854;2023-07-29T01:24:36;1.65;;;1.55;;
65896;SDS011;52677;50.898;10.854;2023-07-29T01:26:36;1.60;;;1.50;;
65896;SDS011;52677;50.898;10.854;2023-07-29T01:28:36;2.20;;;1.60;;
65896;SDS011;52677;50.898;10.854;2023-07-29T01:30:40;1.90;;;1.65;;
65896;SDS011;52677;50.898;10.854;2023-07-29T01:32:54;3.03;;;1.80;;
65896;SDS011;52677;50.898;10.854;2023-07-29T01:37:47;2.83;;;1.65;;
65896;SDS011;52677;50.898;10.854;2023-07-29T01:39:59;1.70;;;1.60;;
65896;SDS011;52677;50.898;10.854;2023-07-29T01:42:01;1.60;;;1.50;;
65896;SDS011;52677;50.898;10.854;2023-07-29T01:44:02;2.17;;;1.45;;
65896;SDS011;52677;50.898;10.854;2023-07-29T01:46:03;3.88;;;1.80;;
65896;SDS011;52677;50.898;10.854;2023-07-29T01:48:06;3.03;;;1.92;;
65896;SDS011;52677;50.898;10.854;2023-07-29T01:50:07;3.33;;;1.77;;
65896;SDS011;52677;50.898;10.854;2023-07-29T01:52:08;2.00;;;1.50;;
65896;SDS011;52677;50.898;10.854;2023-07-29T01:54:09;1.63;;;1.50;;
65896;SDS011;52677;50.898;10.854;2023-07-29T01:56:09;3.38;;;1.85;;
65896;SDS011;52677;50.898;10.854;2023-07-29T01:58:09;2.70;;;1.80;;
65896;SDS011;52677;50.898;10.854;2023-07-29T02:00:10;2.15;;;1.95;;
65896;SDS011;52677;50.898;10.854;2023-07-29T02:02:10;2.05;;;1.88;;
65896;SDS011;52677;50.898;10.854;2023-07-29T02:04:11;2.30;;;2.10;;
65896;SDS011;52677;50.898;10.854;2023-07-29T02:06:11;9.95;;;2.70;;
65896;SDS011;52677;50.898;10.854;2023-07-29T02:08:11;2.45;;;1.90;;
65896;SDS011;52677;50.898;10.854;2023-07-29T02:10:12;3.88;;;2.03;;
65896;SDS011;52677;50.898;10.854;2023-07-29T02:12:12;4.43;;;2.30;;
65896;SDS011;52677;50.898;10.854;2023-07-29T02:14:13;2.80;;;2.15;;
65896;SDS011;52677;50.898;10.854;2023-07-29T02:16:13;3.08;;;2.25;;
65896;SDS011;52677;50.898;10.854;2023-07-29T02:18:13;2.92;;;2.33;;
65896;SDS011;52677;50.898;10.854;2023-07-29T02:20:14;3.65;;;2.55;;
65896;SDS011;52677;50.898;10.854;2023-07-29T02:22:15;3.38;;;2.22;;
65896;SDS011;52677;50.898;10.854;2023-07-29T02:26:17;2.80;;;2.30;;
65896;SDS011;52677;50.898;10.854;2023-07-29T02:28:17;5.28;;;2.20;;
65896;SDS011;52677;50.898;10.854;2023-07-29T02:30:17;3.80;;;2.33;;
65896;SDS011;52677;50.898;10.854;2023-07-29T02:32:18;3.10;;;2.40;;
65896;SDS011;52677;50.898;10.854;2023-07-29T02:34:18;3.08;;;2.15;;
65896;SDS011;52677;50.898;10.854;2023-07-29T02:36:19;3.47;;;2.30;;
65896;SDS011;52677;50.898;10.854;2023-07-29T02:38:19;2.85;;;2.17;;
65896;SDS011;52677;50.898;10.854;2023-07-29T02:40:19;3.90;;;2.40;;
65896;SDS011;52677;50.898;10.854;2023-07-29T02:42:20;2.20;;;1.90;;
65896;SDS011;52677;50.898;10.854;2023-07-29T02:44:21;3.08;;;2.20;;
65896;SDS011;52677;50.898;10.854;2023-07-29T02:46:21;2.20;;;1.98;;
65896;SDS011;52677;50.898;10.854;2023-07-29T02:48:22;3.25;;;2.00;;
65896;SDS011;52677;50.898;10.854;2023-07-29T02:50:22;3.53;;;2.00;;
65896;SDS011;52677;50.898;10.854;2023-07-29T02:52:22;9.00;;;2.63;;
65896;SDS011;52677;50.898;10.854;2023-07-29T02:54:22;4.18;;;2.13;;
65896;SDS011;52677;50.898;10.854;2023-07-29T02:56:23;6.72;;;2.60;;
65896;SDS011;52677;50.898;10.854;2023-07-29T02:58:23;3.83;;;2.30;;
65896;SDS011;52677;50.898;10.854;2023-07-29T03:00:24;3.72;;;2.58;;
65896;SDS011;52677;50.898;10.854;2023-07-29T03:02:24;2.67;;;2.38;;
65896;SDS011;52677;50.898;10.854;2023-07-29T03:04:24;4.05;;;2.38;;
65896;SDS011;52677;50.898;10.854;2023-07-29T03:06:25;2.45;;;2.25;;
65896;SDS011;52677;50.898;10.854;2023-07-29T03:08:25;4.32;;;2.15;;
65896;SDS011;52677;50.898;10.854;2023-07-29T03:10:25;3.15;;;2.08;;
65896;SDS011;52677;50.898;10.854;2023-07-29T03:12:26;2.47;;;2.17;;
65896;SDS011;52677;50.898;10.854;2023-07-29T03:14:27;3.67;;;2.63;;
65896;SDS011;52677;50.898;10.854;2023-07-29T03:16:27;2.60;;;2.40;;
65896;SDS011;52677;50.898;10.854;2023-07-29T03:18:28;3.28;;;2.72;;
65896;SDS011;52677;50.898;10.854;2023-07-29T03:20:28;3.13;;;2.13;;
65896;SDS011;52677;50.898;10.854;2023-07-29T03:22:28;3.13;;;2.67;;
65896;SDS011;52677;50.898;10.854;2023-07-29T03:24:29;4.63;;;2.40;;
65896;SDS011;52677;50.898;10.854;2023-07-29T03:26:29;2.70;;;2.33;;
65896;SDS011;52677;50.898;10.854;2023-07-29T03:28:32;5.88;;;2.65;;
65896;SDS011;52677;50.898;10.854;2023-07-29T03:30:33;3.20;;;2.60;;
65896;SDS011;52677;50.898;10.854;2023-07-29T03:32:33;3.10;;;2.30;;
65896;SDS011;52677;50.898;10.854;2023-07-29T03:34:34;3.13;;;2.30;;
65896;SDS011;52677;50.898;10.854;2023-07-29T03:36:34;3.95;;;2.80;;
65896;SDS011;52677;50.898;10.854;2023-07-29T03:38:34;3.75;;;2.78;;
65896;SDS011;52677;50.898;10.854;2023-07-29T03:40:35;21.48;;;2.90;;
65896;SDS011;52677;50.898;10.854;2023-07-29T03:42:35;3.10;;;2.42;;
65896;SDS011;52677;50.898;10.854;2023-07-29T03:44:36;4.38;;;2.78;;
65896;SDS011;52677;50.898;10.854;2023-07-29T03:48:39;3.90;;;2.73;;
65896;SDS011;52677;50.898;10.854;2023-07-29T03:50:39;8.55;;;3.30;;
65896;SDS011;52677;50.898;10.854;2023-07-29T03:52:39;3.88;;;3.20;;
65896;SDS011;52677;50.898;10.854;2023-07-29T03:54:39;4.72;;;3.15;;
65896;SDS011;52677;50.898;10.854;2023-07-29T03:56:40;3.42;;;2.88;;
65896;SDS011;52677;50.898;10.854;2023-07-29T03:58:41;2.70;;;2.50;;
65896;SDS011;52677;50.898;10.854;2023-07-29T04:00:41;7.95;;;3.22;;
65896;SDS011;52677;50.898;10.854;2023-07-29T04:02:42;4.10;;;2.80;;
65896;SDS011;52677;50.898;10.854;2023-07-29T04:04:42;2.90;;;2.58;;
65896;SDS011;52677;50.898;10.854;2023-07-29T04:06:44;4.97;;;2.65;;
65896;SDS011;52677;50.898;10.854;2023-07-29T04:08:44;2.63;;;2.33;;
65896;SDS011;52677;50.898;10.854;2023-07-29T04:10:44;7.18;;;2.55;;
65896;SDS011;52677;50.898;10.854;2023-07-29T04:12:45;5.57;;;3.00;;
65896;SDS011;52677;50.898;10.854;2023-07-29T04:14:45;3.63;;;2.38;;
65896;SDS011;52677;50.898;10.854;2023-07-29T04:16:46;5.00;;;2.63;;
65896;SDS011;52677;50.898;10.854;2023-07-29T04:18:46;4.82;;;2.55;;
65896;SDS011;52677;50.898;10.854;2023-07-29T04:20:46;3.85;;;2.47;;
65896;SDS011;52677;50.898;10.854;2023-07-29T04:22:46;3.60;;;2.65;;
65896;SDS011;52677;50.898;10.854;2023-07-29T04:24:47;5.97;;;3.00;;
65896;SDS011;52677;50.898;10.854;2023-07-29T04:26:47;7.72;;;2.92;;
65896;SDS011;52677;50.898;10.854;2023-07-29T04:28:47;5.13;;;3.20;;
65896;SDS011;52677;50.898;10.854;2023-07-29T04:30:48;3.28;;;2.65;;
65896;SDS011;52677;50.898;10.854;2023-07-29T04:32:48;8.00;;;3.13;;
65896;SDS011;52677;50.898;10.854;2023-07-29T04:34:48;5.78;;;2.90;;
65896;SDS011;52677;50.898;10.854;2023-07-29T04:36:49;5.38;;;3.05;;
65896;SDS011;52677;50.898;10.854;2023-07-29T04:38:49;4.10;;;2.67;;
65896;SDS011;52677;50.898;10.854;2023-07-29T04:40:49;3.13;;;2.45;;
65896;SDS011;52677;50.898;10.854;2023-07-29T04:42:50;3.78;;;3.05;;
65896;SDS011;52677;50.898;10.854;2023-07-29T04:44:51;3.35;;;2.80;;
65896;SDS011;52677;50.898;10.854;2023-07-29T04:46:51;5.25;;;2.55;;
65896;SDS011;52677;50.898;10.854;2023-07-29T04:48:52;3.05;;;2.53;;
65896;SDS011;52677;50.898;10.854;2023-07-29T04:50:52;3.58;;;2.50;;
65896;SDS011;52677;50.898;10.854;2023-07-29T04:52:52;3.55;;;2.20;;
65896;SDS011;52677;50.898;10.854;2023-07-29T04:54:53;5.38;;;2.70;;
65896;SDS011;52677;50.898;10.854;2023-07-29T04:56:53;5.72;;;3.03;;
65896;SDS011;52677;50.898;10.854;2023-07-29T04:58:54;4.20;;;2.58;;
65896;SDS011;52677;50.898;10.854;2023-07-29T05:00:54;3.85;;;2.30;;
65896;SDS011;52677;50.898;10.854;2023-07-29T05:02:54;3.53;;;2.35;;
65896;SDS011;52677;50.898;10.854;2023-07-29T05:04:55;6.13;;;2.65;;
65896;SDS011;52677;50.898;10.854;2023-07-29T05:06:55;4.57;;;2.25;;
65896;SDS011;52677;50.898;10.854;2023-07-29T05:08:57;4.75;;;2.28;;
65896;SDS011;52677;50.898;10.854;2023-07-29T05:10:57;2.45;;;2.20;;
65896;SDS011;52677;50.898;10.854;2023-07-29T05:12:58;5.05;;;2.28;;
65896;SDS011;52677;50.898;10.854;2023-07-29T05:14:58;3.55;;;2.25;;
65896;SDS011;52677;50.898;10.854;2023-07-29T05:16:58;3.08;;;1.98;;
65896;SDS011;52677;50.898;10.854;2023-07-29T05:18:59;1.90;;;1.70;;
65896;SDS011;52677;50.898;10.854;2023-07-29T05:20:59;1.90;;;1.70;;
65896;SDS011;52677;50.898;10.854;2023-07-29T05:22:59;2.38;;;1.80;;
65896;SDS011;52677;50.898;10.854;2023-07-29T05:25:00;2.28;;;1.85;;
65896;SDS011;52677;50.898;10.854;2023-07-29T05:27:01;2.92;;;1.70;;
65896;SDS011;52677;50.898;10.854;2023-07-29T05:29:01;2.53;;;1.90;;
65896;SDS011;52677;50.898;10.854;2023-07-29T05:31:01;1.95;;;1.75;;
65896;SDS011;52677;50.898;10.854;2023-07-29T05:33:03;2.08;;;1.63;;
65896;SDS011;52677;50.898;10.854;2023-07-29T05:35:04;2.85;;;1.65;;
65896;SDS011;52677;50.898;10.854;2023-07-29T05:37:05;1.95;;;1.80;;
65896;SDS011;52677;50.898;10.854;2023-07-29T05:39:06;1.85;;;1.70;;
65896;SDS011;52677;50.898;10.854;2023-07-29T05:41:07;1.85;;;1.60;;
65896;SDS011;52677;50.898;10.854;2023-07-29T05:43:07;2.10;;;1.65;;
65896;SDS011;52677;50.898;10.854;2023-07-29T05:45:08;2.75;;;1.77;;
65896;SDS011;52677;50.898;10.854;2023-07-29T05:47:08;1.67;;;1.55;;
65896;SDS011;52677;50.898;10.854;2023-07-29T05:49:09;3.13;;;1.50;;
65896;SDS011;52677;50.898;10.854;2023-07-29T05:51:09;2.42;;;1.50;;
65896;SDS011;52677;50.898;10.854;2023-07-29T05:53:10;1.70;;;1.60;;
65896;SDS011;52677;50.898;10.854;2023-07-29T05:55:10;2.22;;;1.85;;
65896;SDS011;52677;50.898;10.854;2023-07-29T05:57:11;5.32;;;1.48;;
65896;SDS011;52677;50.898;10.854;2023-07-29T05:59:11;1.50;;;1.40;;
65896;SDS011;52677;50.898;10.854;2023-07-29T06:01:12;2.30;;;1.50;;
65896;SDS011;52677;50.898;10.854;2023-07-29T06:03:12;6.80;;;1.83;;
65896;SDS011;52677;50.898;10.854;2023-07-29T06:05:12;1.75;;;1.65;;
65896;SDS011;52677;50.898;10.854;2023-07-29T06:07:13;2.20;;;1.73;;
65896;SDS011;52677;50.898;10.854;2023-07-29T06:09:13;3.55;;;1.60;;
65896;SDS011;52677;50.898;10.854;2023-07-29T06:11:13;1.95;;;1.73;;
65896;SDS011;52677;50.898;10.854;2023-07-29T06:13:14;1.60;;;1.42;;
65896;SDS011;52677;50.898;10.854;2023-07-29T06:15:14;1.75;;;1.65;;
65896;SDS011;52677;50.898;10.854;2023-07-29T06:17:14;1.98;;;1.77;;
65896;SDS011;52677;50.898;10.854;2023-07-29T06:19:15;2.53;;;1.83;;
65896;SDS011;52677;50.898;10.854;2023-07-29T06:21:15;2.10;;;1.70;;
65896;SDS011;52677;50.898;10.854;2023-07-29T06:23:16;3.83;;;2.03;;
65896;SDS011;52677;50.898;10.854;2023-07-29T06:25:17;2.10;;;1.60;;
65896;SDS011;52677;50.898;10.854;2023-07-29T06:27:17;2.17;;;1.60;;
65896;SDS011;52677;50.898;10.854;2023-07-29T06:29:18;2.83;;;1.35;;
65896;SDS011;52677;50.898;10.854;2023-07-29T06:31:18;2.72;;;1.40;;
65896;SDS011;52677;50.898;10.854;2023-07-29T06:33:18;3.58;;;1.73;;
65896;SDS011;52677;50.898;10.854;2023-07-29T06:35:19;1.58;;;1.48;;
65896;SDS011;52677;50.898;10.854;2023-07-29T06:37:19;1.50;;;1.40;;
65896;SDS011;52677;50.898;10.854;2023-07-29T06:39:19;2.42;;;1.50;;
65896;SDS011;52677;50.898;10.854;2023-07-29T06:41:20;3.17;;;1.50;;
65896;SDS011;52677;50.898;10.854;2023-07-29T06:43:20;5.00;;;1.40;;
65896;SDS011;52677;50.898;10.854;2023-07-29T06:45:21;2.55;;;1.40;;
65896;SDS011;52677;50.898;10.854;2023-07-29T06:47:21;1.58;;;1.30;;
65896;SDS011;52677;50.898;10.854;2023-07-29T06:49:22;1.73;;;1.20;;
65896;SDS011;52677;50.898;10.854;2023-07-29T06:51:22;1.52;;;1.40;;
65896;SDS011;52677;50.898;10.854;2023-07-29T06:53:22;3.13;;;1.60;;
65896;SDS011;52677;50.898;10.854;2023-07-29T06:55:22;6.57;;;1.55;;
65896;SDS011;52677;50.898;10.854;2023-07-29T06:57:23;6.13;;;1.92;;
65896;SDS011;52677;50.898;10.854;2023-07-29T06:59:23;2.85;;;1.50;;
65896;SDS011;52677;50.898;10.854;2023-07-29T07:01:24;2.47;;;1.50;;
65896;SDS011;52677;50.898;10.854;2023-07-29T07:03:25;2.30;;;1.35;;
65896;SDS011;52677;50.898;10.854;2023-07-29T07:05:25;3.90;;;1.50;;
65896;SDS011;52677;50.898;10.854;2023-07-29T07:07:25;1.58;;;1.48;;
65896;SDS011;52677;50.898;10.854;2023-07-29T07:09:25;2.22;;;1.40;;
65896;SDS011;52677;50.898;10.854;2023-07-29T07:11:26;2.00;;;1.42;;
65896;SDS011;52677;50.898;10.854;2023-07-29T07:13:26;1.98;;;1.42;;
65896;SDS011;52677;50.898;10.854;2023-07-29T07:15:26;1.38;;;1.27;;
65896;SDS011;52677;50.898;10.854;2023-07-29T07:17:27;1.30;;;1.20;;
65896;SDS011;52677;50.898;10.854;2023-07-29T07:19:27;0.93;;;0.90;;
65896;SDS011;52677;50.898;10.854;2023-07-29T07:21:27;2.20;;;1.20;;
65896;SDS011;52677;50.898;10.854;2023-07-29T07:23:28;3.10;;;1.00;;
65896;SDS011;52677;50.898;10.854;2023-07-29T07:25:28;1.48;;;1.13;;
65896;SDS011;52677;50.898;10.854;2023-07-29T07:27:28;2.90;;;1.08;;
65896;SDS011;52677;50.898;10.854;2023-07-29T07:29:29;4.95;;;1.30;;
65896;SDS011;52677;50.898;10.854;2023-07-29T07:31:32;1.83;;;1.05;;
65896;SDS011;52677;50.898;10.854;2023-07-29T07:33:33;1.20;;;1.10;;
65896;SDS011;52677;50.898;10.854;2023-07-29T07:35:34;0.80;;;0.80;;
65896;SDS011;52677;50.898;10.854;2023-07-29T07:37:34;1.25;;;1.05;;
65896;SDS011;52677;50.898;10.854;2023-07-29T07:39:34;3.42;;;1.30;;
65896;SDS011;52677;50.898;10.854;2023-07-29T07:41:35;1.17;;;1.05;;
65896;SDS011;52677;50.898;10.854;2023-07-29T07:43:35;1.27;;;1.10;;
65896;SDS011;52677;50.898;10.854;2023-07-29T07:45:35;2.10;;;1.23;;
65896;SDS011;52677;50.898;10.854;2023-07-29T07:47:36;4.15;;;1.25;;
65896;SDS011;52677;50.898;10.854;2023-07-29T07:49:36;2.05;;;1.35;;
65896;SDS011;52677;50.898;10.854;2023-07-29T07:51:36;3.05;;;1.30;;
65896;SDS011;52677;50.898;10.854;2023-07-29T07:53:36;1.88;;;1.40;;
65896;SDS011;52677;50.898;10.854;2023-07-29T07:55:37;3.88;;;1.42;;
65896;SDS011;52677;50.898;10.854;2023-07-29T07:57:37;2.22;;;1.48;;
65896;SDS011;52677;50.898;10.854;2023-07-29T07:59:37;8.30;;;1.90;;
65896;SDS011;52677;50.898;10.854;2023-07-29T08:01:38;2.85;;;1.50;;
65896;SDS011;52677;50.898;10.854;2023-07-29T08:03:39;1.77;;;1.40;;
65896;SDS011;52677;50.898;10.854;2023-07-29T08:05:40;6.35;;;1.98;;
65896;SDS011;52677;50.898;10.854;2023-07-29T08:07:40;3.65;;;1.70;;
65896;SDS011;52677;50.898;10.854;2023-07-29T08:09:40;2.50;;;1.73;;
65896;SDS011;52677;50.898;10.854;2023-07-29T08:11:40;1.52;;;1.42;;
65896;SDS011;52677;50.898;10.854;2023-07-29T08:13:41;1.40;;;1.30;;
65896;SDS011;52677;50.898;10.854;2023-07-29T08:15:41;1.70;;;1.60;;
65896;SDS011;52677;50.898;10.854;2023-07-29T08:17:45;2.20;;;1.73;;
65896;SDS011;52677;50.898;10.854;2023-07-29T08:19:45;1.85;;;1.42;;
65896;SDS011;52677;50.898;10.854;2023-07-29T08:21:46;1.70;;;1.60;;
65896;SDS011;52677;50.898;10.854;2023-07-29T08:23:46;2.63;;;1.60;;
65896;SDS011;52677;50.898;10.854;2023-07-29T08:25:53;1.98;;;1.50;;
65896;SDS011;52677;50.898;10.854;2023-07-29T08:27:56;2.45;;;1.95;;
65896;SDS011;52677;50.898;10.854;2023-07-29T08:29:56;2.88;;;1.85;;
65896;SDS011;52677;50.898;10.854;2023-07-29T08:31:56;1.75;;;1.50;;
65896;SDS011;52677;50.898;10.854;2023-07-29T08:33:57;2.17;;;1.67;;
65896;SDS011;52677;50.898;10.854;2023-07-29T08:35:57;1.50;;;1.40;;
65896;SDS011;52677;50.898;10.854;2023-07-29T08:37:57;2.03;;;1.83;;
65896;SDS011;52677;50.898;10.854;2023-07-29T08:39:59;2.08;;;1.80;;
65896;SDS011;52677;50.898;10.854;2023-07-29T08:44:12;1.70;;;1.60;;
65896;SDS011;52677;50.898;10.854;2023-07-29T08:46:26;2.13;;;1.92;;
65896;SDS011;52677;50.898;10.854;2023-07-29T08:48:39;2.13;;;1.80;;
65896;SDS011;52677;50.898;10.854;2023-07-29T08:50:41;1.52;;;1.42;;
65896;SDS011;52677;50.898;10.854;2023-07-29T08:52:44;3.33;;;1.85;;
65896;SDS011;52677;50.898;10.854;2023-07-29T08:54:46;3.33;;;1.83;;
65896;SDS011;52677;50.898;10.854;2023-07-29T08:56:46;4.63;;;1.70;;
65896;SDS011;52677;50.898;10.854;2023-07-29T08:58:47;6.15;;;2.30;;
65896;SDS011;52677;50.898;10.854;2023-07-29T09:00:48;3.55;;;1.90;;
65896;SDS011;52677;50.898;10.854;2023-07-29T09:02:49;3.90;;;1.80;;
65896;SDS011;52677;50.898;10.854;2023-07-29T09:04:49;3.00;;;2.00;;
65896;SDS011;52677;50.898;10.854;2023-07-29T09:06:50;3.08;;;1.80;;
65896;SDS011;52677;50.898;10.854;2023-07-29T09:08:51;3.58;;;1.75;;
65896;SDS011;52677;50.898;10.854;2023-07-29T09:10:54;2.28;;;1.83;;
65896;SDS011;52677;50.898;10.854;2023-07-29T09:12:55;2.77;;;2.13;;
65896;SDS011;52677;50.898;10.854;2023-07-29T09:14:56;2.22;;;2.03;;
65896;SDS011;52677;50.898;10.854;2023-07-29T09:16:56;4.05;;;1.90;;
65896;SDS011;52677;50.898;10.854;2023-07-29T09:18:57;3.30;;;2.25;;
65896;SDS011;52677;50.898;10.854;2023-07-29T09:21:01;4.57;;;1.90;;
65896;SDS011;52677;50.898;10.854;2023-07-29T09:23:01;5.55;;;2.33;;
65896;SDS011;52677;50.898;10.854;2023-07-29T09:25:02;3.03;;;2.10;;
65896;SDS011;52677;50.898;10.854;2023-07-29T09:27:02;3.40;;;1.90;;
65896;SDS011;52677;50.898;10.854;2023-07-29T09:29:02;4.85;;;2.03;;
65896;SDS011;52677;50.898;10.854;2023-07-29T09:31:03;2.58;;;1.77;;
65896;SDS011;52677;50.898;10.854;2023-07-29T09:33:04;3.67;;;2.00;;
65896;SDS011;52677;50.898;10.854;2023-07-29T09:35:05;5.22;;;2.40;;
65896;SDS011;52677;50.898;10.854;2023-07-29T09:37:15;2.88;;;2.22;;
65896;SDS011;52677;50.898;10.854;2023-07-29T09:39:16;4.70;;;2.85;;
65896;SDS011;52677;50.898;10.854;2023-07-29T09:41:16;4.47;;;3.70;;
65896;SDS011;52677;50.898;10.854;2023-07-29T09:43:17;4.18;;;3.13;;
65896;SDS011;52677;50.898;10.854;2023-07-29T09:45:21;5.18;;;3.72;;
65896;SDS011;52677;50.898;10.854;2023-07-29T09:47:23;10.23;;;3.35;;
65896;SDS011;52677;50.898;10.854;2023-07-29T09:49:25;3.40;;;2.33;;
65896;SDS011;52677;50.898;10.854;2023-07-29T09:51:25;3.80;;;2.10;;
65896;SDS011;52677;50.898;10.854;2023-07-29T09:53:25;2.75;;;2.40;;
65896;SDS011;52677;50.898;10.854;2023-07-29T09:55:26;4.78;;;2.30;;
65896;SDS011;52677;50.898;10.854;2023-07-29T09:57:27;2.78;;;1.90;;
65896;SDS011;52677;50.898;10.854;2023-07-29T09:59:28;2.42;;;2.00;;
65896;SDS011;52677;50.898;10.854;2023-07-29T10:01:33;2.40;;;2.20;;
65896;SDS011;52677;50.898;10.854;2023-07-29T10:05:36;2.05;;;1.85;;
65896;SDS011;52677;50.898;10.854;2023-07-29T10:07:39;2.45;;;1.60;;
65896;SDS011;52677;50.898;10.854;2023-07-29T10:09:40;3.20;;;1.80;;
65896;SDS011;52677;50.898;10.854;2023-07-29T10:11:41;3.15;;;2.05;;
65896;SDS011;52677;50.898;10.854;2023-07-29T10:13:42;2.17;;;1.98;;
65896;SDS011;52677;50.898;10.854;2023-07-29T10:15:44;2.42;;;2.20;;
65896;SDS011;52677;50.898;10.854;2023-07-29T10:17:45;2.88;;;2.13;;
65896;SDS011;52677;50.898;10.854;2023-07-29T10:19:46;3.00;;;2.00;;
65896;SDS011;52677;50.898;10.854;2023-07-29T10:23:50;2.45;;;2.10;;
65896;SDS011;52677;50.898;10.854;2023-07-29T10:26:05;2.22;;;1.75;;
65896;SDS011;52677;50.898;10.854;2023-07-29T10:28:09;2.33;;;1.80;;
65896;SDS011;52677;50.898;10.854;2023-07-29T10:30:12;2.67;;;2.20;;
65896;SDS011;52677;50.898;10.854;2023-07-29T10:32:13;3.08;;;2.55;;
65896;SDS011;52677;50.898;10.854;2023-07-29T10:34:15;4.40;;;2.20;;
65896;SDS011;52677;50.898;10.854;2023-07-29T10:36:15;2.08;;;1.80;;
65896;SDS011;52677;50.898;10.854;2023-07-29T10:38:16;2.20;;;2.00;;
65896;SDS011;52677;50.898;10.854;2023-07-29T10:40:18;2.80;;;1.80;;
65896;SDS011;52677;50.898;10.854;2023-07-29T10:42:19;3.00;;;2.30;;
65896;SDS011;52677;50.898;10.854;2023-07-29T10:46:39;4.43;;;1.83;;
65896;SDS011;52677;50.898;10.854;2023-07-29T10:48:40;5.70;;;1.90;;
65896;SDS011;52677;50.898;10.854;2023-07-29T10:50:41;4.93;;;1.90;;
65896;SDS011;52677;50.898;10.854;2023-07-29T10:52:42;2.53;;;1.70;;
65896;SDS011;52677;50.898;10.854;2023-07-29T10:54:46;2.95;;;1.80;;
65896;SDS011;52677;50.898;10.854;2023-07-29T10:56:47;2.50;;;1.75;;
65896;SDS011;52677;50.898;10.854;2023-07-29T10:58:48;2.13;;;1.92;;
65896;SDS011;52677;50.898;10.854;2023-07-29T11:00:49;2.83;;;1.55;;
65896;SDS011;52677;50.898;10.854;2023-07-29T11:03:01;3.47;;;1.90;;
65896;SDS011;52677;50.898;10.854;2023-07-29T11:05:06;2.33;;;1.60;;
65896;SDS011;52677;50.898;10.854;2023-07-29T11:09:59;1.60;;;1.40;;
65896;SDS011;52677;50.898;10.854;2023-07-29T11:11:49;1.70;;;1.60;;
65896;SDS011;52677;50.898;10.854;2023-07-29T11:13:50;1.77;;;1.60;;
65896;SDS011;52677;50.898;10.854;2023-07-29T11:15:51;2.45;;;1.60;;
65896;SDS011;52677;50.898;10.854;2023-07-29T11:17:54;2.50;;;1.77;;
65896;SDS011;52677;50.898;10.854;2023-07-29T11:20:04;1.80;;;1.58;;
65896;SDS011;52677;50.898;10.854;2023-07-29T11:22:05;3.15;;;1.30;;
65896;SDS011;52677;50.898;10.854;2023-07-29T11:24:05;2.05;;;1.60;;
65896;SDS011;52677;50.898;10.854;2023-07-29T11:26:08;2.90;;;1.75;;
65896;SDS011;52677;50.898;10.854;2023-07-29T11:28:09;2.78;;;1.50;;
65896;SDS011;52677;50.898;10.854;2023-07-29T11:30:10;2.65;;;1.52;;
65896;SDS011;52677;50.898;10.854;2023-07-29T11:32:12;3.30;;;1.48;;
65896;SDS011;52677;50.898;10.854;2023-07-29T11:34:13;3.10;;;1.90;;
65896;SDS011;52677;50.898;10.854;2023-07-29T11:36:17;4.95;;;1.80;;
65896;SDS011;52677;50.898;10.854;2023-07-29T11:40:20;2.38;;;1.70;;
65896;SDS011;52677;50.898;10.854;2023-07-29T11:42:22;1.88;;;1.67;;
65896;SDS011;52677;50.898;10.854;2023-07-29T11:44:22;1.80;;;1.52;;
65896;SDS011;52677;50.898;10.854;2023-07-29T11:46:22;3.72;;;1.65;;
65896;SDS011;52677;50.898;10.854;2023-07-29T11:48:27;3.25;;;1.80;;
65896;SDS011;52677;50.898;10.854;2023-07-29T11:50:28;2.00;;;1.80;;
65896;SDS011;52677;50.898;10.854;2023-07-29T11:52:28;2.17;;;1.60;;
65896;SDS011;52677;50.898;10.854;2023-07-29T11:54:29;3.30;;;1.70;;
65896;SDS011;52677;50.898;10.854;2023-07-29T11:56:30;3.30;;;2.20;;
65896;SDS011;52677;50.898;10.854;2023-07-29T11:58:30;2.88;;;1.58;;
65896;SDS011;52677;50.898;10.854;2023-07-29T12:00:31;2.35;;;1.67;;
65896;SDS011;52677;50.898;10.854;2023-07-29T12:02:32;2.33;;;1.65;;
65896;SDS011;52677;50.898;10.854;2023-07-29T12:04:36;1.70;;;1.40;;
65896;SDS011;52677;50.898;10.854;2023-07-29T12:06:38;3.60;;;1.60;;
65896;SDS011;52677;50.898;10.854;2023-07-29T12:08:39;1.88;;;1.63;;
65896;SDS011;52677;50.898;10.854;2023-07-29T12:10:39;2.50;;;1.52;;
65896;SDS011;52677;50.898;10.854;2023-07-29T12:12:43;2.50;;;1.30;;
65896;SDS011;52677;50.898;10.854;2023-07-29T12:14:53;2.00;;;1.80;;
65896;SDS011;52677;50.898;10.854;2023-07-29T12:16:54;4.40;;;1.40;;
65896;SDS011;52677;50.898;10.854;2023-07-29T12:18:54;2.38;;;1.60;;